Time;durP1;ratioP1;P1;durP2;ratioP2;P2;SDS_P1;SDS_P2;PMS_P1;PMS_P2;Temp;Humidity;BMP_temperature;BMP_pressure;BME280_temperature;BME280_humidity;BME280_pressure;Samples;Min_cycle;Max_cycle;Signal;HPM_P1;HPM_P2
2021/01/19 00:00:13;;;;;;;3.03;2.72;;;;;;;0.76;66.95;95816.63;5031869;28;20029;-73
2021/01/19 00:02:38;;;;;;;4.32;2.67;;;;;;;0.63;67.28;95845.66;5029125;28;20045;-73
2021/01/19 00:05:04;;;;;;;3.72;2.45;;;;;;;1.45;67.31;95926.22;5029855;28;20163;-73
2021/01/19 00:07:30;;;;;;;3.65;2.90;;;;;;;1.34;67.23;95919.13;5028734;28;20076;-73
2021/01/19 00:09:56;;;;;;;3.70;2.72;;;;;;;1.37;66.98;95923.91;5029685;28;20076;-76
2021/01/19 00:12:21;;;;;;;3.40;2.92;;;;;;;0.68;67.26;95835.31;5031713;28;20104;-74
2021/01/19 00:14:47;;;;;;;5.60;2.85;;;;;;;0.96;68.03;95881.81;5029322;28;20151;-73
2021/01/19 00:17:12;;;;;;;4.38;2.90;;;;;;;0.72;67.77;95864.47;5011634;28;20041;-77
2021/01/19 00:19:38;;;;;;;3.88;2.90;;;;;;;0.63;67.65;95852.72;5011796;28;20036;-76
2021/01/19 00:22:03;;;;;;;6.90;3.35;;;;;;;0.49;68.75;95852.88;5010155;28;20124;-75
2021/01/19 00:24:28;;;;;;;6.10;3.33;;;;;;;0.45;68.85;95858.78;5010920;28;20044;-73
2021/01/19 00:26:54;;;;;;;4.88;3.60;;;;;;;0.10;68.75;95801.06;5031128;28;20056;-74
2021/01/19 00:29:19;;;;;;;4.55;3.50;;;;;;;0.22;68.89;95818.44;5011449;28;20045;-74
2021/01/19 00:31:44;;;;;;;5.47;3.78;;;;;;;0.36;68.98;95870.56;5029013;28;20065;-73
2021/01/19 00:34:10;;;;;;;5.32;4.28;;;;;;;0.07;71.20;95882.63;5028407;28;20402;-73
2021/01/19 00:36:35;;;;;;;5.95;4.43;;;;;;;0.60;69.66;95922.00;5010990;28;20542;-73
2021/01/19 00:39:01;;;;;;;6.82;4.68;;;;;;;-0.48;70.48;95778.06;5031287;28;20442;-75
2021/01/19 00:41:26;;;;;;;6.97;4.13;;;;;;;-0.40;71.78;95825.63;5011096;28;20210;-74
2021/01/19 00:43:51;;;;;;;7.00;4.80;;;;;;;-0.08;70.94;95855.03;5011062;28;20041;-72
2021/01/19 00:46:17;;;;;;;4.88;4.35;;;;;;;-0.19;71.62;95847.91;5011686;28;20077;-74
2021/01/19 00:48:43;;;;;;;6.75;5.03;;;;;;;-0.51;70.45;95755.81;5010877;28;20066;-74
2021/01/19 00:51:08;;;;;;;6.95;4.88;;;;;;;-0.34;71.78;95843.06;5013344;28;20391;-75
2021/01/19 00:53:34;;;;;;;7.38;4.88;;;;;;;0.19;72.32;95914.88;5011444;28;20121;-75
2021/01/19 00:55:59;;;;;;;5.65;5.07;;;;;;;-0.44;72.10;95819.25;5011323;28;20045;-75
2021/01/19 00:58:24;;;;;;;7.75;4.95;;;;;;;-0.33;72.47;95831.56;5028986;28;20068;-76
2021/01/19 01:00:49;;;;;;;4.53;4.13;;;;;;;-0.17;73.12;95885.09;5011209;28;20080;-73
2021/01/19 01:03:15;;;;;;;5.95;5.10;;;;;;;-0.20;72.15;95832.47;5012959;28;20076;-76
2021/01/19 01:05:41;;;;;;;6.47;5.35;;;;;;;-0.21;72.41;95849.94;5011067;28;20037;-74
2021/01/19 01:08:06;;;;;;;6.20;5.10;;;;;;;-0.14;71.88;95844.66;5028304;28;20435;-73
2021/01/19 01:10:32;;;;;;;6.90;4.85;;;;;;;-0.52;72.33;95793.38;5010768;28;20038;-72
2021/01/19 01:12:57;;;;;;;8.20;4.90;;;;;;;-0.65;73.48;95824.88;5010164;28;20050;-74
2021/01/19 01:15:34;;;;;;;8.20;4.95;;;;;;;-0.40;74.14;95875.28;5012422;28;20026;-72
2021/01/19 01:18:00;;;;;;;10.55;5.45;;;;;;;-0.46;72.13;95804.78;5029395;28;20045;-73
2021/01/19 01:20:25;;;;;;;6.05;5.20;;;;;;;-0.59;72.25;95795.28;5011194;28;20041;-73
2021/01/19 01:22:51;;;;;;;6.63;5.30;;;;;;;-0.06;71.90;95862.66;5028239;28;20410;-74
2021/01/19 01:25:17;;;;;;;7.65;5.32;;;;;;;0.15;71.55;95869.22;5010966;28;20041;-75
2021/01/19 01:27:45;;;;;;;6.82;5.13;;;;;;;0.30;71.29;95898.44;5026966;28;20375;-72
2021/01/19 01:30:12;;;;;;;8.55;4.90;;;;;;;-0.07;71.08;95827.06;5030957;28;20033;-73
2021/01/19 01:32:42;;;;;;;5.25;4.55;;;;;;;0.20;70.99;95877.22;5028739;28;20048;-73
2021/01/19 01:35:09;;;;;;;6.45;4.90;;;;;;;-0.34;72.04;95834.41;5013234;28;20042;-73
2021/01/19 01:37:35;;;;;;;6.45;4.88;;;;;;;-0.51;72.63;95823.75;5014401;28;20037;-74
2021/01/19 01:40:00;;;;;;;5.63;5.10;;;;;;;0.11;72.06;95913.38;5014443;28;20061;-74
2021/01/19 01:42:26;;;;;;;6.40;5.07;;;;;;;-0.68;73.66;95828.72;5031964;28;20112;-75
2021/01/19 01:44:52;;;;;;;5.30;4.80;;;;;;;-0.30;73.69;95906.16;5034403;28;20033;-73
2021/01/19 01:47:25;;;;;;;5.60;4.60;;;;;;;-0.39;72.79;95847.34;5012583;28;20498;-73
2021/01/19 01:49:52;;;;;;;5.63;4.57;;;;;;;0.12;72.51;95906.31;5031858;28;20049;-74
2021/01/19 01:52:19;;;;;;;6.38;4.90;;;;;;;-0.60;73.34;95865.03;5013391;28;20049;-74
2021/01/19 01:54:49;;;;;;;5.47;4.88;;;;;;;-0.47;73.11;95861.47;5014027;28;20038;-75
2021/01/19 01:57:15;;;;;;;6.13;4.90;;;;;;;-0.70;73.24;95841.22;5034046;28;20390;-74
2021/01/19 01:59:40;;;;;;;7.32;5.05;;;;;;;-0.73;73.13;95833.00;5013263;28;20049;-75
2021/01/19 02:02:10;;;;;;;6.10;5.15;;;;;;;-0.24;72.67;95880.97;5014287;28;20391;-75
2021/01/19 02:04:36;;;;;;;6.03;4.72;;;;;;;-0.18;71.97;95849.50;5031526;28;20445;-75
2021/01/19 02:07:06;;;;;;;7.72;5.75;;;;;;;0.14;71.62;95878.09;5014172;28;20045;-74
2021/01/19 02:09:39;;;;;;;6.85;5.68;;;;;;;-0.27;71.45;95819.44;5032227;28;20471;-75
2021/01/19 02:12:15;;;;;;;7.30;5.47;;;;;;;-0.67;71.18;95762.38;5034210;28;20026;-75
2021/01/19 02:14:49;;;;;;;6.18;5.57;;;;;;;-0.05;71.14;95849.38;5014319;28;20041;-75
2021/01/19 02:17:34;;;;;;;6.93;5.75;;;;;;;-0.30;70.92;95812.84;5014138;28;20077;-74
2021/01/19 02:20:18;;;;;;;7.55;5.90;;;;;;;0.08;71.06;95874.56;5032146;28;20033;-75
2021/01/19 02:23:25;;;;;;;9.63;5.75;;;;;;;0.05;71.10;95872.38;5031611;28;20081;-75
2021/01/19 02:26:32;;;;;;;8.48;5.70;;;;;;;-0.01;71.24;95865.41;5014280;28;20128;-75
2021/01/19 02:29:17;;;;;;;8.73;5.75;;;;;;;-0.20;71.78;95830.63;5013199;28;20041;-75
2021/01/19 02:31:54;;;;;;;8.75;5.50;;;;;;;-0.03;71.79;95855.16;5031388;28;20045;-75
2021/01/19 02:34:33;;;;;;;6.95;6.25;;;;;;;-0.03;71.72;95854.38;5031881;28;20056;-75
2021/01/19 02:36:58;;;;;;;8.95;5.93;;;;;;;-0.05;71.57;95849.38;5013857;28;20124;-74
2021/01/19 02:39:42;;;;;;;9.13;6.20;;;;;;;-0.04;71.73;95850.16;5034004;28;20111;-81
2021/01/19 02:42:11;;;;;;;10.50;6.30;;;;;;;-0.18;71.57;95828.59;5014512;28;20137;-74
2021/01/19 02:44:39;;;;;;;10.02;6.15;;;;;;;-0.37;71.73;95800.84;5012040;28;20082;-75
2021/01/19 02:47:05;;;;;;;7.47;5.38;;;;;;;-0.12;71.59;95837.38;5012228;28;20038;-75
2021/01/19 02:49:30;;;;;;;7.70;6.28;;;;;;;-0.67;71.22;95762.38;5031157;28;20461;-74
2021/01/19 02:51:58;;;;;;;8.82;6.30;;;;;;;-0.48;71.46;95797.16;5013527;28;20116;-75
2021/01/19 02:54:24;;;;;;;8.77;5.60;;;;;;;-0.34;71.35;95811.69;5031139;28;20029;-75
2021/01/19 02:56:52;;;;;;;10.30;6.40;;;;;;;-0.20;71.46;95828.03;5015507;28;20041;-74
2021/01/19 02:59:30;;;;;;;7.10;5.82;;;;;;;-0.35;71.37;95824.97;5029941;28;20514;-75
2021/01/19 03:02:11;;;;;;;6.60;5.78;;;;;;;-0.65;71.56;95776.03;5013088;28;20403;-74
2021/01/19 03:04:38;;;;;;;10.80;5.60;;;;;;;-1.13;71.81;95703.59;5011956;28;20041;-75
2021/01/19 03:07:06;;;;;;;10.18;6.45;;;;;;;-0.33;71.81;95828.16;5013022;28;20042;-74
2021/01/19 03:09:35;;;;;;;8.00;6.35;;;;;;;-0.64;72.12;95788.09;5012269;28;20391;-75
2021/01/19 03:12:01;;;;;;;7.63;5.95;;;;;;;-0.92;71.68;95744.19;5015309;28;20039;-75
2021/01/19 03:14:27;;;;;;;7.78;6.47;;;;;;;-0.84;72.00;95756.16;5030323;28;20091;-75
2021/01/19 03:17:03;;;;;;;7.90;6.60;;;;;;;-0.72;71.70;95770.06;5028984;28;20037;-75
2021/01/19 03:19:29;;;;;;;7.97;5.57;;;;;;;-0.64;72.18;95790.69;5029817;28;20041;-74
2021/01/19 03:21:54;;;;;;;8.43;6.53;;;;;;;-0.70;72.03;95781.13;5012730;28;20128;-74
2021/01/19 03:24:19;;;;;;;9.35;6.47;;;;;;;-0.59;72.07;95801.31;5015065;28;20059;-75
2021/01/19 03:26:44;;;;;;;9.50;6.32;;;;;;;-0.63;72.12;95787.06;5012693;28;20041;-73
2021/01/19 03:29:10;;;;;;;10.05;6.53;;;;;;;-0.76;71.49;95776.78;5030164;28;20045;-76
2021/01/19 03:31:35;;;;;;;7.45;6.10;;;;;;;-1.25;71.67;95713.16;5028881;28;20056;-75
2021/01/19 03:34:00;;;;;;;7.78;6.20;;;;;;;-0.79;71.98;95790.25;5012759;28;20557;-74
2021/01/19 03:36:26;;;;;;;6.93;6.00;;;;;;;-0.97;71.88;95740.59;5011773;28;20025;-75
2021/01/19 03:38:51;;;;;;;7.78;6.03;;;;;;;-0.77;71.56;95779.59;5014582;28;20032;-75
2021/01/19 03:41:16;;;;;;;9.85;6.82;;;;;;;-0.97;71.90;95748.44;5029100;28;20037;-74
2021/01/19 03:43:42;;;;;;;13.18;7.05;;;;;;;-1.15;72.06;95742.19;5012575;28;20045;-74
2021/01/19 03:46:07;;;;;;;10.88;7.10;;;;;;;-1.45;72.03;95692.47;5030021;28;20042;-75
2021/01/19 03:48:32;;;;;;;12.65;7.03;;;;;;;-1.32;72.27;95709.84;5012378;28;20075;-74
2021/01/19 03:50:58;;;;;;;9.65;6.72;;;;;;;-1.23;71.95;95739.06;5014187;28;20079;-75
2021/01/19 03:53:23;;;;;;;8.70;6.80;;;;;;;-1.14;72.37;95743.00;5029302;28;20123;-74
2021/01/19 03:55:48;;;;;;;10.30;6.82;;;;;;;-1.18;72.51;95737.38;5027948;28;20044;-75
2021/01/19 03:58:14;;;;;;;9.68;6.63;;;;;;;-1.10;72.63;95758.00;5008818;28;20055;-74
2021/01/19 04:00:39;;;;;;;12.10;7.15;;;;;;;-0.82;72.67;95793.28;5030440;28;20041;-76
2021/01/19 04:03:04;;;;;;;10.40;7.30;;;;;;;-1.25;72.27;95728.84;5014100;28;20033;-76
2021/01/19 04:05:30;;;;;;;8.45;6.43;;;;;;;-1.03;72.39;95764.97;5029474;28;20159;-74
2021/01/19 04:07:55;;;;;;;10.98;6.35;;;;;;;-1.38;72.28;95703.66;5029699;28;20041;-75
2021/01/19 04:10:20;;;;;;;9.98;7.00;;;;;;;-1.45;72.34;95710.75;5029632;28;20045;-75
2021/01/19 04:12:46;;;;;;;13.48;7.32;;;;;;;-0.93;72.83;95780.94;5011778;28;20045;-75
2021/01/19 04:15:12;;;;;;;9.38;7.10;;;;;;;-1.32;72.74;95752.41;5032105;28;20353;-76
2021/01/19 04:17:39;;;;;;;10.02;6.78;;;;;;;-1.29;72.53;95760.78;5011958;28;20096;-75
2021/01/19 04:20:06;;;;;;;9.57;7.07;;;;;;;-1.55;72.28;95712.25;5029687;28;20030;-75
2021/01/19 04:22:32;;;;;;;10.07;7.00;;;;;;;-1.64;72.53;95702.09;5029028;28;20512;-75
2021/01/19 04:24:57;;;;;;;9.85;6.55;;;;;;;-1.81;72.46;95674.94;5011945;28;20141;-75
2021/01/19 04:27:23;;;;;;;11.15;6.90;;;;;;;-1.18;73.08;95765.31;5013966;28;20064;-75
2021/01/19 04:29:48;;;;;;;12.65;7.03;;;;;;;-1.42;72.81;95723.38;5011035;28;20499;-75
2021/01/19 04:32:14;;;;;;;9.90;6.57;;;;;;;-1.07;72.65;95770.66;5011341;28;20041;-75
2021/01/19 04:34:40;;;;;;;8.25;6.38;;;;;;;-1.36;72.96;95740.78;5029104;28;20124;-75
2021/01/19 04:37:05;;;;;;;10.88;7.38;;;;;;;-1.52;72.43;95706.59;5011434;28;20527;-74
2021/01/19 04:39:30;;;;;;;11.48;7.60;;;;;;;-1.71;72.55;95690.91;5029489;28;20033;-76
2021/01/19 04:41:56;;;;;;;11.30;7.68;;;;;;;-1.78;72.92;95674.50;5013661;28;20025;-75
2021/01/19 04:44:24;;;;;;;9.98;6.63;;;;;;;-1.08;72.95;95792.53;5029071;28;20483;-74
2021/01/19 04:46:49;;;;;;;8.52;7.25;;;;;;;-1.29;72.71;95730.28;5011073;28;20135;-74
2021/01/19 04:49:16;;;;;;;9.27;7.55;;;;;;;-1.37;73.01;95714.91;5028462;28;20134;-76
2021/01/19 04:51:45;;;;;;;14.25;8.25;;;;;;;-1.69;72.45;95672.41;5011599;28;20026;-75
2021/01/19 04:54:15;;;;;;;11.70;6.75;;;;;;;-1.42;72.70;95733.00;5014001;28;20099;-75
2021/01/19 04:56:49;;;;;;;11.20;7.05;;;;;;;-1.62;72.30;95683.63;5011574;28;20410;-76
2021/01/19 04:59:20;;;;;;;10.02;6.72;;;;;;;-1.76;72.95;95680.31;5011810;28;20038;-76
2021/01/19 05:01:54;;;;;;;9.77;6.22;;;;;;;-1.24;73.28;95740.88;5029089;28;20337;-74
2021/01/19 05:04:26;;;;;;;8.93;5.85;;;;;;;-1.27;73.29;95741.31;5027366;28;20061;-75
2021/01/19 05:06:51;;;;;;;6.72;5.03;;;;;;;-1.29;73.07;95743.31;5028896;28;20101;-75
2021/01/19 05:09:22;;;;;;;10.15;8.88;;;;;;;-1.82;72.65;95655.09;5033150;28;20048;-75
2021/01/19 05:11:51;;;;;;;6.78;5.40;;;;;;;-1.39;73.04;95719.53;5015090;28;20052;-76
2021/01/19 05:14:19;;;;;;;10.02;5.55;;;;;;;-1.33;72.27;95729.13;5032168;28;20118;-74
2021/01/19 05:16:45;;;;;;;5.32;4.38;;;;;;;-1.99;72.95;95625.34;5014863;28;20041;-75
2021/01/19 05:19:10;;;;;;;4.53;3.70;;;;;;;-1.86;72.80;95644.28;5015164;28;20384;-76
2021/01/19 05:21:37;;;;;;;5.00;4.03;;;;;;;-1.33;72.80;95726.50;5013948;28;20044;-75
2021/01/19 05:24:03;;;;;;;7.05;4.93;;;;;;;-1.59;72.47;95681.38;5017286;28;20036;-75
2021/01/19 05:26:29;;;;;;;7.57;4.53;;;;;;;-1.68;72.26;95668.81;5013662;28;20045;-75
2021/01/19 05:28:54;;;;;;;6.30;4.30;;;;;;;-2.28;72.15;95577.25;5032604;28;20048;-75
2021/01/19 05:31:25;;;;;;;6.43;4.00;;;;;;;-1.34;72.45;95715.25;5032727;28;20045;-74
2021/01/19 05:33:53;;;;;;;4.75;3.60;;;;;;;-1.34;71.87;95711.84;5014482;28;20069;-74
2021/01/19 05:36:40;;;;;;;6.38;3.53;;;;;;;-1.46;72.17;95690.09;5017161;28;20083;-75
2021/01/19 05:39:10;;;;;;;24.95;4.13;;;;;;;-1.38;71.56;95702.88;5015074;28;20084;-75
2021/01/19 05:41:40;;;;;;;5.13;3.97;;;;;;;-1.58;71.64;95677.75;5013540;28;20128;-75
2021/01/19 05:44:30;;;;;;;5.50;3.90;;;;;;;-1.44;71.19;95698.50;5014652;28;20037;-75
2021/01/19 05:46:59;;;;;;;22.55;3.60;;;;;;;-1.46;71.40;95698.72;5031589;28;20037;-75
2021/01/19 05:49:26;;;;;;;5.63;3.13;;;;;;;-1.60;71.05;95684.19;5013099;28;20037;-75
2021/01/19 05:52:01;;;;;;;4.22;3.42;;;;;;;-1.55;71.67;95697.38;5014056;28;20087;-75
2021/01/19 05:54:40;;;;;;;3.13;2.72;;;;;;;-1.63;71.32;95679.41;5015194;28;20029;-74
2021/01/19 05:57:14;;;;;;;3.83;2.88;;;;;;;-1.64;71.65;95683.00;5034750;28;20483;-74
2021/01/19 05:59:52;;;;;;;5.65;2.60;;;;;;;-1.67;70.88;95670.41;5014469;28;20609;-72
2021/01/19 06:02:20;;;;;;;3.80;3.40;;;;;;;-1.85;71.02;95650.28;5013540;28;20056;-71
2021/01/19 06:04:53;;;;;;;3.83;2.92;;;;;;;-1.87;71.27;95653.13;5014176;28;20068;-73
2021/01/19 06:07:25;;;;;;;2.63;2.38;;;;;;;-1.61;70.84;95699.03;5032267;28;20045;-78
2021/01/19 06:09:52;;;;;;;3.45;2.75;;;;;;;-1.67;71.71;95679.03;5032395;28;20842;-72
2021/01/19 06:12:18;;;;;;;3.15;2.65;;;;;;;-1.64;71.38;95690.84;5034408;28;20164;-70
2021/01/19 06:14:52;;;;;;;2.97;2.22;;;;;;;-1.75;71.27;95666.25;5032672;28;20049;-74
2021/01/19 06:17:21;;;;;;;3.70;2.40;;;;;;;-1.69;70.72;95680.25;5032210;28;20487;-79
2021/01/19 06:19:47;;;;;;;3.17;2.88;;;;;;;-1.71;70.98;95671.84;5029378;28;20048;-76
2021/01/19 06:22:14;;;;;;;3.58;2.20;;;;;;;-1.76;70.74;95662.06;5014765;28;20128;-81
2021/01/19 06:24:44;;;;;;;4.30;2.70;;;;;;;-1.74;71.29;95667.03;5031972;28;20025;-78
2021/01/19 06:27:26;;;;;;;18.05;5.00;;;;;;;-1.82;70.57;95652.47;5033638;28;20455;-73
2021/01/19 06:30:00;;;;;;;635.95;140.52;;;;;;;-2.14;71.06;95604.81;5027909;28;20049;-76
2021/01/19 06:32:30;;;;;;;245.20;55.10;;;;;;;-1.78;70.53;95671.91;5031890;28;20042;-73
2021/01/19 06:35:15;;;;;;;56.80;15.32;;;;;;;-1.98;71.03;95642.59;5032202;28;20046;-80
2021/01/19 06:37:42;;;;;;;32.50;11.88;;;;;;;-2.01;70.71;95625.56;5031343;28;20061;-77
2021/01/19 06:40:11;;;;;;;7.13;4.38;;;;;;;-2.04;71.30;95619.97;5029897;28;20056;-73
2021/01/19 06:42:37;;;;;;;6.72;3.65;;;;;;;-1.99;70.91;95636.59;5032300;28;20030;-73
2021/01/19 06:45:08;;;;;;;3.90;2.58;;;;;;;-2.00;71.64;95634.16;5033796;28;20387;-74
2021/01/19 06:47:52;;;;;;;5.25;3.15;;;;;;;-1.79;70.76;95639.03;5032100;28;20033;-78
2021/01/19 06:50:34;;;;;;;4.80;3.30;;;;;;;-1.74;71.49;95633.16;5032554;28;20030;-73
2021/01/19 06:53:22;;;;;;;3.38;2.83;;;;;;;-1.61;71.30;95633.81;5032294;28;20080;-74
2021/01/19 06:55:56;;;;;;;3.75;2.85;;;;;;;-1.55;70.89;95633.97;5032018;28;20040;-71
2021/01/19 06:58:27;;;;;;;2.70;2.20;;;;;;;-1.50;69.88;95626.31;5031608;28;20136;-72
2021/01/19 07:00:59;;;;;;;4.22;2.50;;;;;;;-1.46;69.44;95625.66;5031696;28;20045;-72
2021/01/19 07:03:24;;;;;;;;;;;;;;;-1.42;69.99;95626.03;5031379;28;20086;-67
2021/01/19 07:06:10;;;;;;;3.75;2.30;;;;;;;-1.40;69.41;95622.19;5033610;28;19924;-73
2021/01/19 07:08:51;;;;;;;2.72;1.80;;;;;;;-1.54;69.25;95593.84;5030992;28;20057;-75
2021/01/19 07:11:35;;;;;;;4.05;1.80;;;;;;;-1.72;69.07;95555.50;5031162;28;20033;-75
2021/01/19 07:14:09;;;;;;;3.28;2.08;;;;;;;-1.36;68.31;95614.72;5030883;28;20054;-70
2021/01/19 07:16:45;;;;;;;5.22;2.28;;;;;;;-1.46;68.31;95594.34;5031488;28;20045;-78
2021/01/19 07:19:18;;;;;;;4.05;2.03;;;;;;;-1.36;68.63;95601.69;5031818;28;20046;-74
2021/01/19 07:22:03;;;;;;;4.13;2.15;;;;;;;-1.31;67.94;95599.22;5028726;28;20041;-73
2021/01/19 07:24:45;;;;;;;5.15;2.08;;;;;;;-1.40;67.60;95583.03;5010505;28;20385;-76
2021/01/19 07:27:13;;;;;;;4.03;1.98;;;;;;;-1.51;67.67;95546.44;5015686;28;20032;-77
2021/01/19 07:29:39;;;;;;;3.97;2.08;;;;;;;-1.47;67.25;95550.22;5013620;28;20045;-78
2021/01/19 07:32:10;;;;;;;2.60;2.20;;;;;;;-1.12;67.15;95574.69;5031177;28;20037;-76
2021/01/19 07:34:37;;;;;;;3.60;2.00;;;;;;;-1.01;67.00;95582.81;5031227;28;20045;-78
2021/01/19 07:37:03;;;;;;;2.83;1.55;;;;;;;-1.13;66.33;95538.34;5008339;28;20042;-77
2021/01/19 07:39:33;;;;;;;2.15;1.95;;;;;;;-0.86;66.53;95578.00;5030915;28;20030;-79
2021/01/19 07:42:18;;;;;;;2.33;1.83;;;;;;;-0.83;66.32;95569.69;5033288;28;20052;-76
2021/01/19 07:45:32;;;;;;;3.05;1.50;;;;;;;-0.82;65.96;95550.38;5031537;28;20045;-79
2021/01/19 07:48:06;;;;;;;2.83;1.58;;;;;;;-0.68;65.57;95562.25;5013524;28;20065;-78
2021/01/19 07:50:43;;;;;;;2.22;1.52;;;;;;;-0.83;64.89;95522.69;5031367;28;20033;-78
2021/01/19 07:53:09;;;;;;;1.90;1.60;;;;;;;-0.51;65.34;95562.44;5031169;28;20141;-77
2021/01/19 07:55:46;;;;;;;4.00;2.17;;;;;;;-0.41;64.60;95554.00;5031424;28;20048;-76
2021/01/19 07:58:19;;;;;;;2.55;1.65;;;;;;;-0.43;64.84;95546.41;5030792;28;20033;-76
2021/01/19 08:00:54;;;;;;;1.60;1.50;;;;;;;-0.57;64.25;95474.47;5029411;28;20041;-75
2021/01/19 08:03:29;;;;;;;2.08;1.60;;;;;;;-1.32;63.95;95363.56;5032897;28;20436;-77
2021/01/19 08:06:06;;;;;;;1.98;1.70;;;;;;;0.08;63.43;95526.66;5031682;28;20038;-79
2021/01/19 08:08:37;;;;;;;1.70;1.30;;;;;;;0.24;63.35;95512.88;5030970;28;20064;-78
2021/01/19 08:11:03;;;;;;;2.85;1.38;;;;;;;0.31;62.56;95501.50;5031841;28;20037;-79
2021/01/19 08:13:28;;;;;;;3.53;1.60;;;;;;;0.26;62.61;95465.59;5031090;28;20145;-80
2021/01/19 08:16:01;;;;;;;1.60;1.48;;;;;;;0.72;61.92;95495.28;5031961;28;20115;-81
2021/01/19 08:18:36;;;;;;;1.67;1.38;;;;;;;0.77;61.54;95474.44;5012813;28;20109;-80
2021/01/19 08:21:10;;;;;;;1.63;1.48;;;;;;;1.22;60.56;95498.00;5033041;28;20022;-80
2021/01/19 08:23:36;;;;;;;2.85;1.50;;;;;;;1.51;60.16;95514.47;5030861;28;20045;-80
2021/01/19 08:26:03;;;;;;;4.15;2.55;;;;;;;1.49;59.13;95471.19;5030614;28;20037;-78
2021/01/19 08:28:29;;;;;;;2.30;1.60;;;;;;;1.85;58.27;95498.75;5030715;28;20037;-79
2021/01/19 08:30:55;;;;;;;1.60;1.50;;;;;;;1.97;58.25;95477.66;5030634;28;20045;-77
2021/01/19 08:33:23;;;;;;;1.52;1.42;;;;;;;2.28;57.10;95489.38;5032591;28;20037;-78
2021/01/19 08:35:50;;;;;;;2.90;1.65;;;;;;;2.66;57.33;95501.66;5011794;28;20046;-76
2021/01/19 08:38:21;;;;;;;1.48;1.38;;;;;;;2.50;56.25;95440.28;5029138;28;20072;-77
2021/01/19 08:40:46;;;;;;;2.03;1.40;;;;;;;3.03;55.84;95469.50;5012678;28;20037;-78
2021/01/19 08:43:11;;;;;;;1.75;1.23;;;;;;;3.17;55.62;95483.00;5029868;28;20045;-79
2021/01/19 08:45:39;;;;;;;1.83;1.30;;;;;;;3.38;54.49;95485.59;5012277;28;20037;-77
2021/01/19 08:48:06;;;;;;;1.77;1.20;;;;;;;3.46;54.33;95491.44;5031846;28;20053;-77
2021/01/19 08:50:35;;;;;;;1.65;1.23;;;;;;;3.46;54.45;95488.81;5011951;28;20038;-74
2021/01/19 08:53:11;;;;;;;1.75;1.35;;;;;;;3.41;54.74;95488.75;5029414;28;20052;-76
2021/01/19 08:55:37;;;;;;;4.30;2.30;;;;;;;3.03;54.58;95438.75;5024573;23;20052;-69
2021/01/19 08:58:03;;;;;;;4.30;1.85;;;;;;;2.72;54.33;95395.63;5028693;28;20041;-67
2021/01/19 09:00:37;;;;;;;3.97;1.30;;;;;;;3.20;54.55;95472.81;5029363;28;20039;-68
2021/01/19 09:03:11;;;;;;;2.60;1.30;;;;;;;3.17;54.69;95475.13;5030922;28;20037;-67
2021/01/19 09:05:36;;;;;;;1.85;1.17;;;;;;;2.92;55.28;95441.50;5011653;28;20046;-67
2021/01/19 09:08:12;;;;;;;2.33;1.33;;;;;;;3.10;55.10;95468.25;5029301;28;20535;-65
2021/01/19 09:10:38;;;;;;;1.23;1.13;;;;;;;2.75;54.86;95431.09;5029594;28;20112;-67
2021/01/19 09:13:03;;;;;;;1.33;1.05;;;;;;;2.88;55.32;95446.47;5028959;28;20076;-68
2021/01/19 09:15:36;;;;;;;1.35;1.20;;;;;;;2.97;54.93;95459.94;5029323;28;20064;-68
2021/01/19 09:18:02;;;;;;;1.30;1.20;;;;;;;2.57;54.01;95435.66;5031246;28;20483;-68
2021/01/19 09:20:28;;;;;;;3.10;1.02;;;;;;;2.93;54.88;95464.13;5029389;28;20044;-67
2021/01/19 09:22:54;;;;;;;1.48;1.38;;;;;;;2.94;54.78;95452.56;5011180;28;20042;-67
2021/01/19 09:25:23;;;;;;;2.13;1.20;;;;;;;3.10;55.05;95481.38;5029198;28;20038;-68
2021/01/19 09:27:49;;;;;;;1.83;1.20;;;;;;;3.07;54.98;95439.84;5028501;28;20044;-68
2021/01/19 09:30:17;;;;;;;1.30;1.10;;;;;;;3.43;54.19;95458.56;5013280;28;20387;-67
2021/01/19 09:32:43;;;;;;;1.50;1.40;;;;;;;3.47;54.14;95437.78;5010960;28;20050;-67
2021/01/19 09:35:13;;;;;;;4.80;1.67;;;;;;;3.59;53.92;95436.59;5011485;28;20181;-67
2021/01/19 09:37:40;;;;;;;2.00;1.33;;;;;;;3.78;53.39;95439.59;5028901;28;20041;-68
2021/01/19 09:40:07;;;;;;;1.77;1.40;;;;;;;3.57;53.74;95390.53;5029233;28;20056;-67
2021/01/19 09:42:36;;;;;;;1.55;1.45;;;;;;;3.76;53.25;95393.53;5028285;28;20029;-67
2021/01/19 09:45:02;;;;;;;2.05;1.40;;;;;;;4.12;52.81;95429.53;5031382;28;20025;-67
2021/01/19 09:47:28;;;;;;;2.33;1.80;;;;;;;4.15;52.80;95413.25;5029051;28;20036;-68
2021/01/19 09:49:54;;;;;;;3.30;2.03;;;;;;;3.89;51.98;95366.78;5029153;28;20033;-69
2021/01/19 09:52:28;;;;;;;2.70;1.40;;;;;;;3.45;51.87;95408.34;5011408;28;20030;-68
2021/01/19 09:55:05;;;;;;;0.73;0.73;;;;;;;3.59;51.80;95414.75;5029482;28;20517;-68
2021/01/19 09:57:30;;;;;;;1.27;0.65;;;;;;;3.76;51.90;95407.50;5031987;28;20025;-68
2021/01/19 09:59:56;;;;;;;0.77;0.60;;;;;;;3.89;51.77;95401.00;5016600;28;20021;-66
2021/01/19 10:02:28;;;;;;;0.65;0.60;;;;;;;4.03;51.89;95390.78;5014510;28;20061;-69
2021/01/19 10:05:00;;;;;;;0.85;0.60;;;;;;;4.09;51.22;95372.13;5032551;28;20461;-69
2021/01/19 10:07:29;;;;;;;2.05;0.90;;;;;;;4.06;50.09;95354.22;5032077;28;20510;-67
2021/01/19 10:10:16;;;;;;;0.63;0.60;;;;;;;3.42;52.49;95383.31;5032307;28;20144;-66
2021/01/19 10:12:43;;;;;;;4.63;0.85;;;;;;;3.89;51.79;95351.00;5031803;28;20120;-68
2021/01/19 10:15:10;;;;;;;0.80;0.73;;;;;;;3.34;52.34;95365.41;5034275;28;20018;-67
2021/01/19 10:17:36;;;;;;;0.63;0.60;;;;;;;4.10;51.96;95333.44;5031872;28;20048;-66
2021/01/19 10:20:15;;;;;;;3.30;0.82;;;;;;;4.84;51.05;95362.06;5014509;28;20033;-66
2021/01/19 10:22:48;;;;;;;0.80;0.80;;;;;;;5.08;49.94;95333.34;5014029;28;20045;-69
2021/01/19 10:25:28;;;;;;;2.83;0.80;;;;;;;5.53;48.66;95337.00;5032346;28;20118;-69
2021/01/19 10:27:59;;;;;;;0.57;0.57;;;;;;;5.73;47.32;95325.59;5031352;28;20075;-68
2021/01/19 10:30:28;;;;;;;0.90;0.70;;;;;;;5.87;47.06;95299.44;5032129;28;20491;-66
2021/01/19 10:32:54;;;;;;;1.08;0.90;;;;;;;6.02;46.29;95327.66;5033668;28;20064;-68
2021/01/19 10:35:34;;;;;;;0.77;0.70;;;;;;;6.28;46.36;95304.56;5032051;28;20053;-68
2021/01/19 10:38:03;;;;;;;0.60;0.60;;;;;;;6.52;46.15;95324.00;5031732;28;20495;-67
2021/01/19 10:40:29;;;;;;;0.57;0.57;;;;;;;6.78;45.30;95324.63;5014222;28;20081;-66
2021/01/19 10:42:55;;;;;;;0.80;0.80;;;;;;;6.77;45.47;95283.38;5032135;28;20128;-69
2021/01/19 10:45:31;;;;;;;2.50;0.88;;;;;;;6.39;44.61;95303.44;5015989;28;20045;-66
2021/01/19 10:48:02;;;;;;;0.82;0.82;;;;;;;5.33;47.29;95295.63;5031936;28;20549;-67
2021/01/19 10:50:32;;;;;;;0.98;0.90;;;;;;;5.51;47.80;95327.78;5031781;28;20061;-66
2021/01/19 10:53:04;;;;;;;1.38;0.80;;;;;;;4.72;46.85;95308.84;5031216;28;20050;-67
2021/01/19 10:55:33;;;;;;;1.20;1.08;;;;;;;4.15;48.96;95336.88;5031346;28;20038;-63
2021/01/19 10:58:00;;;;;;;2.08;1.10;;;;;;;4.26;48.99;95313.22;5030480;28;20049;-64
2021/01/19 11:00:27;;;;;;;1.30;1.02;;;;;;;4.18;49.69;95307.41;5013549;28;20094;-66
2021/01/19 11:02:54;;;;;;;1.25;0.95;;;;;;;4.49;49.80;95318.00;5033021;28;20036;-61
2021/01/19 11:05:19;;;;;;;1.48;1.30;;;;;;;3.95;50.96;95334.19;5031445;28;20038;-61
2021/01/19 11:07:46;;;;;;;1.38;1.10;;;;;;;3.69;50.97;95322.75;5030242;28;20037;-62
2021/01/19 11:10:13;;;;;;;1.67;1.25;;;;;;;4.10;50.67;95307.91;5031173;28;20556;-65
2021/01/19 11:12:39;;;;;;;0.80;0.80;;;;;;;4.38;50.22;95274.28;5030888;28;20499;-65
2021/01/19 11:15:06;;;;;;;1.23;1.10;;;;;;;4.99;48.74;95260.34;5033007;28;20029;-64
2021/01/19 11:17:31;;;;;;;1.30;1.00;;;;;;;5.08;48.86;95285.91;5030757;28;20077;-66
2021/01/19 11:19:57;;;;;;;1.20;1.10;;;;;;;5.39;48.69;95278.72;5031043;28;20057;-63
2021/01/19 11:22:22;;;;;;;1.15;1.05;;;;;;;6.05;47.89;95264.53;5030535;28;20102;-63
2021/01/19 11:24:47;;;;;;;1.33;1.13;;;;;;;6.47;46.55;95261.38;5013430;28;20041;-62
2021/01/19 11:27:12;;;;;;;2.28;0.85;;;;;;;6.78;46.47;95238.16;5032478;28;20025;-62
2021/01/19 11:29:38;;;;;;;1.10;1.00;;;;;;;7.29;44.85;95258.09;5030618;28;20037;-63
2021/01/19 11:32:03;;;;;;;0.88;0.73;;;;;;;7.50;44.53;95246.22;5030705;28;20372;-63
2021/01/19 11:34:29;;;;;;;0.80;0.70;;;;;;;7.69;45.12;95261.38;5030937;28;20566;-64
2021/01/19 11:36:54;;;;;;;1.35;0.90;;;;;;;7.83;44.64;95251.69;5030465;28;20560;-63
2021/01/19 11:39:20;;;;;;;1.00;0.60;;;;;;;7.94;43.88;95244.41;5032271;28;20040;-64
2021/01/19 11:41:45;;;;;;;1.10;1.00;;;;;;;7.97;43.45;95230.56;5030252;28;20037;-62
2021/01/19 11:44:11;;;;;;;1.42;0.80;;;;;;;7.99;43.14;95221.28;5030474;28;20444;-63
2021/01/19 11:46:38;;;;;;;0.93;0.85;;;;;;;7.98;42.81;95234.78;5030605;28;20402;-63